sensor_id;sensor_type;location;lat;lon;timestamp;temperature;humidity
8481;DHT22;4277;51.354;6.740;2023-06-26T01:39:07;32.00;1.00
8481;DHT22;4277;51.354;6.740;2023-06-26T02:16:04;23.00;57.70
8481;DHT22;4277;51.354;6.740;2023-06-26T02:18:29;22.40;62.10
8481;DHT22;4277;51.354;6.740;2023-06-26T02:25:46;22.60;56.90
8481;DHT22;4277;51.354;6.740;2023-06-26T02:28:12;22.40;58.10
8481;DHT22;4277;51.354;6.740;2023-06-26T02:35:29;22.30;65.10
8481;DHT22;4277;51.354;6.740;2023-06-26T02:37:55;22.30;66.70
8481;DHT22;4277;51.354;6.740;2023-06-26T02:45:12;22.20;70.00
8481;DHT22;4277;51.354;6.740;2023-06-26T02:47:38;22.10;78.70
8481;DHT22;4277;51.354;6.740;2023-06-26T02:52:31;22.00;70.60
8481;DHT22;4277;51.354;6.740;2023-06-26T02:54:57;22.00;69.30
8481;DHT22;4277;51.354;6.740;2023-06-26T02:57:22;22.10;75.00
8481;DHT22;4277;51.354;6.740;2023-06-26T03:07:08;21.90;79.40
8481;DHT22;4277;51.354;6.740;2023-06-26T03:09:34;21.70;77.00
8481;DHT22;4277;51.354;6.740;2023-06-26T03:11:59;21.80;71.70
8481;DHT22;4277;51.354;6.740;2023-06-26T03:14:25;21.90;72.00
8481;DHT22;4277;51.354;6.740;2023-06-26T03:16:52;21.80;74.70
8481;DHT22;4277;51.354;6.740;2023-06-26T03:19:18;21.80;74.30
8481;DHT22;4277;51.354;6.740;2023-06-26T03:21:43;21.80;76.30
8481;DHT22;4277;51.354;6.740;2023-06-26T03:24:09;21.70;76.10
8481;DHT22;4277;51.354;6.740;2023-06-26T03:26:34;21.80;76.30
8481;DHT22;4277;51.354;6.740;2023-06-26T03:29:00;21.70;81.30
8481;DHT22;4277;51.354;6.740;2023-06-26T03:33:51;21.70;83.20
8481;DHT22;4277;51.354;6.740;2023-06-26T03:43:36;21.60;87.10
8481;DHT22;4277;51.354;6.740;2023-06-26T03:46:01;21.60;86.80
8481;DHT22;4277;51.354;6.740;2023-06-26T03:48:27;21.70;88.00
8481;DHT22;4277;51.354;6.740;2023-06-26T03:50:53;21.70;86.00
8481;DHT22;4277;51.354;6.740;2023-06-26T03:53:18;21.60;91.10
8481;DHT22;4277;51.354;6.740;2023-06-26T03:55:44;21.60;91.50
8481;DHT22;4277;51.354;6.740;2023-06-26T03:58:10;21.60;92.40
8481;DHT22;4277;51.354;6.740;2023-06-26T04:00:35;21.60;93.80
8481;DHT22;4277;51.354;6.740;2023-06-26T04:03:01;21.70;93.60
8481;DHT22;4277;51.354;6.740;2023-06-26T04:05:28;21.70;94.60
8481;DHT22;4277;51.354;6.740;2023-06-26T04:07:54;21.70;91.90
8481;DHT22;4277;51.354;6.740;2023-06-26T04:10:20;21.70;78.70
8481;DHT22;4277;51.354;6.740;2023-06-26T04:12:47;21.70;92.00
8481;DHT22;4277;51.354;6.740;2023-06-26T04:15:13;21.80;84.60
8481;DHT22;4277;51.354;6.740;2023-06-26T04:17:39;21.70;91.40
8481;DHT22;4277;51.354;6.740;2023-06-26T04:20:05;21.80;94.50
8481;DHT22;4277;51.354;6.740;2023-06-26T04:22:34;21.80;93.40
8481;DHT22;4277;51.354;6.740;2023-06-26T04:25:03;21.80;92.60
8481;DHT22;4277;51.354;6.740;2023-06-26T04:27:28;21.90;80.00
8481;DHT22;4277;51.354;6.740;2023-06-26T04:29:54;22.00;92.30
8481;DHT22;4277;51.354;6.740;2023-06-26T04:32:19;22.00;91.30
8481;DHT22;4277;51.354;6.740;2023-06-26T04:34:45;22.00;93.40
8481;DHT22;4277;51.354;6.740;2023-06-26T04:37:11;22.00;84.70
8481;DHT22;4277;51.354;6.740;2023-06-26T04:39:37;22.00;85.20
8481;DHT22;4277;51.354;6.740;2023-06-26T04:42:04;21.90;87.50
8481;DHT22;4277;51.354;6.740;2023-06-26T04:44:29;21.90;84.70
8481;DHT22;4277;51.354;6.740;2023-06-26T04:46:55;22.00;82.90
8481;DHT22;4277;51.354;6.740;2023-06-26T04:49:20;22.00;84.70
8481;DHT22;4277;51.354;6.740;2023-06-26T04:51:46;22.00;80.40
8481;DHT22;4277;51.354;6.740;2023-06-26T04:54:12;22.00;78.10
8481;DHT22;4277;51.354;6.740;2023-06-26T04:56:38;22.00;77.90
8481;DHT22;4277;51.354;6.740;2023-06-26T04:59:05;22.00;80.30
8481;DHT22;4277;51.354;6.740;2023-06-26T05:01:31;22.10;79.70
8481;DHT22;4277;51.354;6.740;2023-06-26T05:03:58;22.10;81.00
8481;DHT22;4277;51.354;6.740;2023-06-26T05:06:23;22.00;77.80
8481;DHT22;4277;51.354;6.740;2023-06-26T05:08:49;22.10;75.30
8481;DHT22;4277;51.354;6.740;2023-06-26T05:11:15;22.00;77.70
8481;DHT22;4277;51.354;6.740;2023-06-26T05:13:40;22.10;79.30
8481;DHT22;4277;51.354;6.740;2023-06-26T05:16:06;22.00;76.50
8481;DHT22;4277;51.354;6.740;2023-06-26T05:18:34;22.00;76.50
8481;DHT22;4277;51.354;6.740;2023-06-26T05:21:00;22.10;76.30
8481;DHT22;4277;51.354;6.740;2023-06-26T05:23:27;22.10;75.20
8481;DHT22;4277;51.354;6.740;2023-06-26T05:25:55;22.20;77.70
8481;DHT22;4277;51.354;6.740;2023-06-26T05:28:22;22.20;70.80
8481;DHT22;4277;51.354;6.740;2023-06-26T05:30:50;22.30;75.90
8481;DHT22;4277;51.354;6.740;2023-06-26T05:33:18;22.30;72.30
8481;DHT22;4277;51.354;6.740;2023-06-26T05:35:45;22.20;73.50
8481;DHT22;4277;51.354;6.740;2023-06-26T05:38:11;22.20;73.50
8481;DHT22;4277;51.354;6.740;2023-06-26T05:40:39;22.20;73.30
8481;DHT22;4277;51.354;6.740;2023-06-26T05:43:06;22.20;74.10
8481;DHT22;4277;51.354;6.740;2023-06-26T05:45:31;22.10;74.40
8481;DHT22;4277;51.354;6.740;2023-06-26T05:47:57;22.10;72.30
8481;DHT22;4277;51.354;6.740;2023-06-26T05:50:23;22.10;71.50
8481;DHT22;4277;51.354;6.740;2023-06-26T05:52:49;22.00;74.20
8481;DHT22;4277;51.354;6.740;2023-06-26T05:55:15;21.90;74.80
8481;DHT22;4277;51.354;6.740;2023-06-26T05:57:41;22.00;74.60
8481;DHT22;4277;51.354;6.740;2023-06-26T06:00:07;21.90;74.50
8481;DHT22;4277;51.354;6.740;2023-06-26T06:02:36;21.90;75.20
8481;DHT22;4277;51.354;6.740;2023-06-26T06:05:03;22.00;77.10
8481;DHT22;4277;51.354;6.740;2023-06-26T06:07:28;22.10;76.20
8481;DHT22;4277;51.354;6.740;2023-06-26T06:09:54;22.20;76.10
8481;DHT22;4277;51.354;6.740;2023-06-26T06:12:19;22.10;76.40
8481;DHT22;4277;51.354;6.740;2023-06-26T06:14:45;22.10;76.50
8481;DHT22;4277;51.354;6.740;2023-06-26T06:17:10;22.00;75.40
8481;DHT22;4277;51.354;6.740;2023-06-26T06:19:36;21.90;76.30
8481;DHT22;4277;51.354;6.740;2023-06-26T06:22:02;21.90;76.00
8481;DHT22;4277;51.354;6.740;2023-06-26T06:24:27;21.90;79.30
8481;DHT22;4277;51.354;6.740;2023-06-26T06:26:53;21.90;78.30
8481;DHT22;4277;51.354;6.740;2023-06-26T06:29:18;22.30;78.60
8481;DHT22;4277;51.354;6.740;2023-06-26T06:31:45;22.00;79.10
8481;DHT22;4277;51.354;6.740;2023-06-26T06:34:10;22.00;81.50
8481;DHT22;4277;51.354;6.740;2023-06-26T06:36:37;22.00;80.90
8481;DHT22;4277;51.354;6.740;2023-06-26T06:39:02;21.90;79.70
8481;DHT22;4277;51.354;6.740;2023-06-26T06:41:28;22.00;79.60
8481;DHT22;4277;51.354;6.740;2023-06-26T06:43:54;22.00;78.40
8481;DHT22;4277;51.354;6.740;2023-06-26T06:46:20;22.10;80.20
8481;DHT22;4277;51.354;6.740;2023-06-26T06:48:45;22.10;79.70
8481;DHT22;4277;51.354;6.740;2023-06-26T06:51:12;22.00;83.20
8481;DHT22;4277;51.354;6.740;2023-06-26T06:53:38;22.10;77.80
8481;DHT22;4277;51.354;6.740;2023-06-26T06:56:03;22.40;78.40
8481;DHT22;4277;51.354;6.740;2023-06-26T06:58:29;22.40;76.60
8481;DHT22;4277;51.354;6.740;2023-06-26T07:00:59;22.40;76.80
8481;DHT22;4277;51.354;6.740;2023-06-26T07:03:25;22.50;78.10
8481;DHT22;4277;51.354;6.740;2023-06-26T07:05:50;22.30;79.60
8481;DHT22;4277;51.354;6.740;2023-06-26T07:08:16;22.30;81.80
8481;DHT22;4277;51.354;6.740;2023-06-26T07:10:41;22.30;80.30
8481;DHT22;4277;51.354;6.740;2023-06-26T07:13:07;22.20;81.50
8481;DHT22;4277;51.354;6.740;2023-06-26T07:15:32;21.90;83.70
8481;DHT22;4277;51.354;6.740;2023-06-26T07:17:58;21.90;84.90
8481;DHT22;4277;51.354;6.740;2023-06-26T07:20:24;22.00;83.90
8481;DHT22;4277;51.354;6.740;2023-06-26T07:22:49;22.10;82.20
8481;DHT22;4277;51.354;6.740;2023-06-26T07:25:15;22.10;81.70
8481;DHT22;4277;51.354;6.740;2023-06-26T07:27:41;22.20;84.70
8481;DHT22;4277;51.354;6.740;2023-06-26T07:30:08;22.30;83.40
8481;DHT22;4277;51.354;6.740;2023-06-26T07:32:37;22.40;85.00
8481;DHT22;4277;51.354;6.740;2023-06-26T07:35:04;22.60;86.30
8481;DHT22;4277;51.354;6.740;2023-06-26T07:37:29;22.70;81.00
8481;DHT22;4277;51.354;6.740;2023-06-26T07:39:55;22.80;78.10
8481;DHT22;4277;51.354;6.740;2023-06-26T07:42:21;22.90;78.60
8481;DHT22;4277;51.354;6.740;2023-06-26T07:44:46;22.90;78.40
8481;DHT22;4277;51.354;6.740;2023-06-26T07:47:12;22.80;78.90
8481;DHT22;4277;51.354;6.740;2023-06-26T07:49:39;22.90;78.80
8481;DHT22;4277;51.354;6.740;2023-06-26T07:52:05;22.90;76.50
8481;DHT22;4277;51.354;6.740;2023-06-26T07:54:30;23.10;77.60
8481;DHT22;4277;51.354;6.740;2023-06-26T07:57:01;23.10;75.70
8481;DHT22;4277;51.354;6.740;2023-06-26T07:59:28;23.20;74.60
8481;DHT22;4277;51.354;6.740;2023-06-26T08:01:56;23.20;73.70
8481;DHT22;4277;51.354;6.740;2023-06-26T08:04:24;23.30;74.70
8481;DHT22;4277;51.354;6.740;2023-06-26T08:06:52;23.20;73.80
8481;DHT22;4277;51.354;6.740;2023-06-26T08:09:19;23.40;74.80
8481;DHT22;4277;51.354;6.740;2023-06-26T08:11:45;23.10;73.20
8481;DHT22;4277;51.354;6.740;2023-06-26T08:14:11;22.90;74.30
8481;DHT22;4277;51.354;6.740;2023-06-26T08:16:38;23.00;75.50
8481;DHT22;4277;51.354;6.740;2023-06-26T08:19:04;23.10;76.30
8481;DHT22;4277;51.354;6.740;2023-06-26T08:21:29;23.10;74.50
8481;DHT22;4277;51.354;6.740;2023-06-26T08:23:55;23.10;74.60
8481;DHT22;4277;51.354;6.740;2023-06-26T08:26:21;23.00;72.50
8481;DHT22;4277;51.354;6.740;2023-06-26T08:28:46;23.00;72.10
8481;DHT22;4277;51.354;6.740;2023-06-26T08:31:12;23.10;74.30
8481;DHT22;4277;51.354;6.740;2023-06-26T08:33:37;23.00;71.30
8481;DHT22;4277;51.354;6.740;2023-06-26T08:36:03;23.00;72.00
8481;DHT22;4277;51.354;6.740;2023-06-26T08:38:29;23.00;69.50
8481;DHT22;4277;51.354;6.740;2023-06-26T08:40:54;23.10;67.80
8481;DHT22;4277;51.354;6.740;2023-06-26T08:43:20;23.20;69.10
8481;DHT22;4277;51.354;6.740;2023-06-26T08:45:47;23.40;67.70
8481;DHT22;4277;51.354;6.740;2023-06-26T08:48:17;23.40;61.90
8481;DHT22;4277;51.354;6.740;2023-06-26T08:50:43;23.50;62.40
8481;DHT22;4277;51.354;6.740;2023-06-26T08:53:23;23.50;63.60
8481;DHT22;4277;51.354;6.740;2023-06-26T08:55:52;23.60;62.70
8481;DHT22;4277;51.354;6.740;2023-06-26T16:40:22;23.60;62.40
8481;DHT22;4277;51.354;6.740;2023-06-26T16:47:40;23.30;1.00
8481;DHT22;4277;51.354;6.740;2023-06-26T16:50:06;22.90;1.00
8481;DHT22;4277;51.354;6.740;2023-06-26T16:52:32;23.00;1.00
8481;DHT22;4277;51.354;6.740;2023-06-26T16:54:57;23.10;1.00
8481;DHT22;4277;51.354;6.740;2023-06-26T16:57:23;23.00;1.00
8481;DHT22;4277;51.354;6.740;2023-06-26T16:59:48;22.90;1.00
8481;DHT22;4277;51.354;6.740;2023-06-26T17:02:14;22.90;1.00
8481;DHT22;4277;51.354;6.740;2023-06-26T17:04:40;22.80;1.00
8481;DHT22;4277;51.354;6.740;2023-06-26T17:07:05;23.00;1.00
8481;DHT22;4277;51.354;6.740;2023-06-26T17:09:31;22.80;1.00
8481;DHT22;4277;51.354;6.740;2023-06-26T17:11:57;22.80;1.00
8481;DHT22;4277;51.354;6.740;2023-06-26T17:14:22;22.90;1.00
8481;DHT22;4277;51.354;6.740;2023-06-26T17:16:48;22.90;1.00
8481;DHT22;4277;51.354;6.740;2023-06-26T17:19:13;22.90;1.00
8481;DHT22;4277;51.354;6.740;2023-06-26T17:21:39;23.00;1.00
8481;DHT22;4277;51.354;6.740;2023-06-26T17:24:05;22.80;1.00
8481;DHT22;4277;51.354;6.740;2023-06-26T17:26:31;22.90;1.00
8481;DHT22;4277;51.354;6.740;2023-06-26T17:28:57;22.80;1.00
8481;DHT22;4277;51.354;6.740;2023-06-26T17:31:22;22.90;1.00
8481;DHT22;4277;51.354;6.740;2023-06-26T17:33:48;22.90;1.00
8481;DHT22;4277;51.354;6.740;2023-06-26T17:36:13;23.00;1.00
8481;DHT22;4277;51.354;6.740;2023-06-26T17:38:39;22.90;1.00
8481;DHT22;4277;51.354;6.740;2023-06-26T17:41:06;23.40;1.00
8481;DHT22;4277;51.354;6.740;2023-06-26T17:43:34;23.30;1.00
8481;DHT22;4277;51.354;6.740;2023-06-26T17:46:00;23.40;1.00
8481;DHT22;4277;51.354;6.740;2023-06-26T17:48:25;23.60;1.00
8481;DHT22;4277;51.354;6.740;2023-06-26T17:50:52;23.60;1.00
8481;DHT22;4277;51.354;6.740;2023-06-26T17:53:17;23.60;1.00
8481;DHT22;4277;51.354;6.740;2023-06-26T17:55:43;23.40;1.00
8481;DHT22;4277;51.354;6.740;2023-06-26T17:58:09;23.50;1.00
8481;DHT22;4277;51.354;6.740;2023-06-26T18:44:37;23.90;1.00
8481;DHT22;4277;51.354;6.740;2023-06-26T18:47:03;23.10;1.00
8481;DHT22;4277;51.354;6.740;2023-06-26T18:49:28;22.90;1.00
8481;DHT22;4277;51.354;6.740;2023-06-26T18:51:54;22.90;1.00
8481;DHT22;4277;51.354;6.740;2023-06-26T18:54:21;22.90;1.00
8481;DHT22;4277;51.354;6.740;2023-06-26T18:56:46;22.70;1.00
8481;DHT22;4277;51.354;6.740;2023-06-26T18:59:12;22.50;1.00
8481;DHT22;4277;51.354;6.740;2023-06-26T19:01:38;22.30;1.00
8481;DHT22;4277;51.354;6.740;2023-06-26T19:04:04;22.40;1.00
8481;DHT22;4277;51.354;6.740;2023-06-26T19:06:30;22.30;1.00
8481;DHT22;4277;51.354;6.740;2023-06-26T19:08:55;22.20;1.00
8481;DHT22;4277;51.354;6.740;2023-06-26T19:11:21;22.20;1.00
8481;DHT22;4277;51.354;6.740;2023-06-26T19:13:47;22.10;1.00
8481;DHT22;4277;51.354;6.740;2023-06-26T19:16:13;22.20;1.00
8481;DHT22;4277;51.354;6.740;2023-06-26T19:18:39;22.00;1.00
8481;DHT22;4277;51.354;6.740;2023-06-26T19:21:05;21.90;1.00
8481;DHT22;4277;51.354;6.740;2023-06-26T19:23:30;21.90;1.00
8481;DHT22;4277;51.354;6.740;2023-06-26T19:25:56;21.90;1.00
8481;DHT22;4277;51.354;6.740;2023-06-26T19:28:22;21.80;1.00
8481;DHT22;4277;51.354;6.740;2023-06-26T19:30:48;21.60;1.00
8481;DHT22;4277;51.354;6.740;2023-06-26T19:33:14;21.70;1.00
8481;DHT22;4277;51.354;6.740;2023-06-26T19:35:39;21.60;1.00
8481;DHT22;4277;51.354;6.740;2023-06-26T19:38:05;21.50;1.00
8481;DHT22;4277;51.354;6.740;2023-06-26T19:40:35;21.60;1.00
8481;DHT22;4277;51.354;6.740;2023-06-26T19:43:04;21.50;2.30
8481;DHT22;4277;51.354;6.740;2023-06-26T19:45:30;21.50;1.00
8481;DHT22;4277;51.354;6.740;2023-06-26T19:47:56;21.40;1.00
8481;DHT22;4277;51.354;6.740;2023-06-26T19:50:21;21.00;1.00
8481;DHT22;4277;51.354;6.740;2023-06-26T19:52:48;20.90;1.00
8481;DHT22;4277;51.354;6.740;2023-06-26T19:55:13;21.00;1.00
8481;DHT22;4277;51.354;6.740;2023-06-26T19:57:40;21.20;1.00
8481;DHT22;4277;51.354;6.740;2023-06-26T20:00:06;21.00;1.00
8481;DHT22;4277;51.354;6.740;2023-06-26T20:02:31;20.90;1.00
8481;DHT22;4277;51.354;6.740;2023-06-26T20:04:57;21.00;1.00
8481;DHT22;4277;51.354;6.740;2023-06-26T20:07:22;21.00;1.00
8481;DHT22;4277;51.354;6.740;2023-06-26T20:09:50;20.90;1.00
8481;DHT22;4277;51.354;6.740;2023-06-26T20:12:17;20.90;1.00
8481;DHT22;4277;51.354;6.740;2023-06-26T20:14:44;20.80;1.00
8481;DHT22;4277;51.354;6.740;2023-06-26T20:17:09;20.70;1.00
8481;DHT22;4277;51.354;6.740;2023-06-26T20:19:35;20.80;8.70
8481;DHT22;4277;51.354;6.740;2023-06-26T20:22:00;20.80;1.00
8481;DHT22;4277;51.354;6.740;2023-06-26T20:24:26;20.50;1.00
8481;DHT22;4277;51.354;6.740;2023-06-26T20:26:53;20.50;1.00
8481;DHT22;4277;51.354;6.740;2023-06-26T20:29:19;20.30;1.00
8481;DHT22;4277;51.354;6.740;2023-06-26T20:31:44;20.40;1.00
8481;DHT22;4277;51.354;6.740;2023-06-26T20:34:10;20.30;1.00
8481;DHT22;4277;51.354;6.740;2023-06-26T20:36:36;20.40;1.00
8481;DHT22;4277;51.354;6.740;2023-06-26T20:39:01;20.50;1.00
8481;DHT22;4277;51.354;6.740;2023-06-26T20:41:27;20.40;1.00
8481;DHT22;4277;51.354;6.740;2023-06-26T20:43:53;20.40;1.00
8481;DHT22;4277;51.354;6.740;2023-06-26T20:46:19;20.20;1.00
8481;DHT22;4277;51.354;6.740;2023-06-26T20:48:46;20.20;1.00
8481;DHT22;4277;51.354;6.740;2023-06-26T20:51:12;20.20;1.00
8481;DHT22;4277;51.354;6.740;2023-06-26T20:53:38;20.30;1.00
8481;DHT22;4277;51.354;6.740;2023-06-26T20:56:04;20.20;1.00
8481;DHT22;4277;51.354;6.740;2023-06-26T20:58:30;20.20;1.00
8481;DHT22;4277;51.354;6.740;2023-06-26T21:00:55;20.10;1.00
8481;DHT22;4277;51.354;6.740;2023-06-26T21:03:21;20.10;1.00
8481;DHT22;4277;51.354;6.740;2023-06-26T21:05:46;19.90;1.00
8481;DHT22;4277;51.354;6.740;2023-06-26T21:08:12;19.90;1.00
8481;DHT22;4277;51.354;6.740;2023-06-26T21:10:37;20.00;1.00
8481;DHT22;4277;51.354;6.740;2023-06-26T21:13:05;20.00;1.00
8481;DHT22;4277;51.354;6.740;2023-06-26T21:15:30;20.30;1.00
8481;DHT22;4277;51.354;6.740;2023-06-26T21:17:56;20.10;1.00
8481;DHT22;4277;51.354;6.740;2023-06-26T21:20:21;20.10;1.00
8481;DHT22;4277;51.354;6.740;2023-06-26T21:22:47;20.10;1.00
8481;DHT22;4277;51.354;6.740;2023-06-26T21:25:13;19.90;1.00
8481;DHT22;4277;51.354;6.740;2023-06-26T21:27:38;19.90;1.00
8481;DHT22;4277;51.354;6.740;2023-06-26T21:30:04;19.90;1.00
8481;DHT22;4277;51.354;6.740;2023-06-26T21:32:32;19.80;1.00
8481;DHT22;4277;51.354;6.740;2023-06-26T21:34:58;19.90;1.00
8481;DHT22;4277;51.354;6.740;2023-06-26T21:37:25;19.70;1.00
8481;DHT22;4277;51.354;6.740;2023-06-26T21:39:51;19.70;1.00
8481;DHT22;4277;51.354;6.740;2023-06-26T21:42:17;19.60;1.00
8481;DHT22;4277;51.354;6.740;2023-06-26T21:44:42;19.50;1.00
8481;DHT22;4277;51.354;6.740;2023-06-26T21:47:08;19.70;2.00
8481;DHT22;4277;51.354;6.740;2023-06-26T21:49:33;19.60;3.30
8481;DHT22;4277;51.354;6.740;2023-06-26T21:51:59;19.50;4.30
8481;DHT22;4277;51.354;6.740;2023-06-26T21:54:24;19.70;1.00
8481;DHT22;4277;51.354;6.740;2023-06-26T21:56:50;19.60;1.00
8481;DHT22;4277;51.354;6.740;2023-06-26T21:59:15;19.60;1.00
8481;DHT22;4277;51.354;6.740;2023-06-26T22:01:41;19.50;1.00
8481;DHT22;4277;51.354;6.740;2023-06-26T22:04:06;19.60;1.00
8481;DHT22;4277;51.354;6.740;2023-06-26T22:06:32;19.40;10.90
8481;DHT22;4277;51.354;6.740;2023-06-26T22:08:57;19.40;14.20
8481;DHT22;4277;51.354;6.740;2023-06-26T22:11:23;19.40;13.50
8481;DHT22;4277;51.354;6.740;2023-06-26T22:13:48;19.40;13.60
8481;DHT22;4277;51.354;6.740;2023-06-26T22:16:14;19.50;15.00
8481;DHT22;4277;51.354;6.740;2023-06-26T22:18:39;19.30;16.20
8481;DHT22;4277;51.354;6.740;2023-06-26T22:21:05;19.30;18.90
8481;DHT22;4277;51.354;6.740;2023-06-26T22:23:31;19.30;18.10
8481;DHT22;4277;51.354;6.740;2023-06-26T22:25:57;19.40;18.20
8481;DHT22;4277;51.354;6.740;2023-06-26T22:28:22;19.40;14.70
8481;DHT22;4277;51.354;6.740;2023-06-26T22:30:48;19.30;16.70
8481;DHT22;4277;51.354;6.740;2023-06-26T22:33:13;19.30;18.30
8481;DHT22;4277;51.354;6.740;2023-06-26T22:35:39;19.30;21.70
8481;DHT22;4277;51.354;6.740;2023-06-26T22:38:04;19.20;22.90
8481;DHT22;4277;51.354;6.740;2023-06-26T22:40:30;19.10;22.60
8481;DHT22;4277;51.354;6.740;2023-06-26T22:42:55;19.10;19.80
8481;DHT22;4277;51.354;6.740;2023-06-26T22:45:21;19.10;21.90
8481;DHT22;4277;51.354;6.740;2023-06-26T22:47:46;19.10;24.60
